San Bernardino, CA

8:41 PM PDT on April 26, 2017 (GMT -0700)
MSDSBO | | Change Station
Active Advisory: Wind Advisory

Elev 1049 ft 34.11 °N, 117.30 °W | Updated 5 minutes ago

Mostly Cloudy
Mostly Cloudy
70.0 °F
Feels Like 70.0 °F
N
4.0
Wind Variable Wind from SW
Gusts 7.0 mph

Today
High -- | Low -- °F
--% Chance of Precip.
Yesterday
High -- | Low -- °F
Precip. -- in
Pressure 29.82 in
Visibility 7.0 miles
Clouds Mostly Cloudy 15000 ft
Dew Point 49 °F
Humidity 48%
Rainfall 0.00 in
Snow Depth Not available.
6:04 AM 7:29 PM
New Moon, 1% visible
METAR KSBD 270250Z 22004KT 7SM BKN150 20/08 A2982
Pressure 29.82 in
Visibility 7.0 miles
Clouds Mostly Cloudy 15000 ft
Dew Point 49 °F
Humidity 48%
Rainfall 0.00 in
Snow Depth Not available.
6:04 AM 7:29 PM
New Moon, 1% visible
METAR KSBD 270250Z 22004KT 7SM BKN150 20/08 A2982

Get Your Daily Forecast Email!

Thanks for signing up!

Be on the lookout for a verification email in your inbox.

You'll start receiving severe weather alerts in your inbox..

×

10-Day Weather Forecast

Almanac

Astronomy

Apr. 26, 2017 Rise Set
Actual Time
Civil Twilight
Nautical Twilight
Astronomical Twilight
Moon
Length of Visible Light
Length of Day
Tomorrow will be .
, % of the Moon is Illuminated

Today's Extremes

State Highs State Lows

Community

WunderPhotos

WunderBlog® & News

Nearby

Air Quality

  Air Quality AQ Index Pollutant
Not available.

Snow Depth

Station Depth Elevation

Earthquake Activity

City Distance Mag. Time & Date
Minimum magnitude displayed is 2.5.

Coastal Water Temperatures

Place Temperature

Stations

Nearby Weather Stations

Station Location Temp. Windchill Dew Point Humidity Wind Precip. Elev Updated Type
                   

Watches & Warnings

Wind Advisory
Issued: 8:08 PM PDT Apr. 26, 2017 – National Weather Service

... Wind Advisory remains in effect until 3 am PDT Thursday...

* winds... areas of westerly winds 25 to 35 mph, with gusts 50 to
60 mph.

* Timing... through tonight.

* Location... strongest winds from the Mountain Ridge tops along
Desert Mountain slopes into adjacent desert areas.

* Visibility... locally reduced below 3 miles in blowing sand and
blowing dust in the deserts.

* Impacts... the winds will make driving difficult... especially
for motorists with high profile vehicles. Watch for broken
tree limbs. In the deserts... areas of blowing dust and sand
will reduce visibility at times.

Precautionary/preparedness actions...

A Wind Advisory means that winds of 35 mph are expected. Winds
this strong can make driving difficult... especially for high
profile vehicles. Use extra caution.



Jad